createdAt,value
2023-07-03T00:01:56.919Z,11.52
2023-07-03T00:04:24.670Z,10.57
2023-07-03T00:06:51.517Z,10.07
2023-07-03T00:09:18.148Z,11.45
2023-07-03T00:11:44.935Z,11.70
2023-07-03T00:14:11.537Z,11.05
2023-07-03T00:16:38.170Z,11.40
2023-07-03T00:19:04.815Z,12.18
2023-07-03T00:21:31.407Z,11.38
2023-07-03T00:23:57.976Z,11.65
2023-07-03T00:26:25.827Z,11.18
2023-07-03T00:28:52.629Z,10.88
2023-07-03T00:31:19.284Z,11.35
2023-07-03T00:33:45.924Z,11.73
2023-07-03T00:36:13.112Z,9.98
2023-07-03T00:38:40.258Z,11.90
2023-07-03T00:41:06.893Z,11.48
2023-07-03T00:43:34.451Z,11.63
2023-07-03T00:46:01.172Z,12.10
2023-07-03T00:48:27.920Z,12.13
2023-07-03T00:50:54.510Z,11.63
2023-07-03T00:53:21.271Z,12.90
2023-07-03T00:55:47.980Z,10.88
2023-07-03T00:58:14.758Z,12.20
2023-07-03T01:00:46.414Z,11.32
2023-07-03T01:03:17.843Z,11.93
2023-07-03T01:05:49.346Z,12.52
2023-07-03T01:08:16.440Z,11.50
2023-07-03T01:10:43.086Z,12.35
2023-07-03T01:13:13.415Z,15.68
2023-07-03T01:15:41.635Z,13.57
2023-07-03T01:18:08.235Z,13.07
2023-07-03T01:20:39.367Z,13.52
2023-07-03T01:23:26.377Z,13.13
2023-07-03T01:25:53.147Z,12.55
2023-07-03T01:28:20.626Z,15.52
2023-07-03T01:30:47.549Z,15.68
2023-07-03T01:33:18.711Z,14.32
2023-07-03T01:35:47.108Z,13.60
2023-07-03T01:38:15.274Z,14.40
2023-07-03T01:40:41.936Z,13.25
2023-07-03T01:43:08.845Z,14.10
2023-07-03T01:45:40.528Z,13.48
2023-07-03T01:48:07.201Z,14.50
2023-07-03T01:50:34.210Z,13.65
2023-07-03T01:53:03.630Z,12.75
2023-07-03T01:55:40.977Z,13.93
2023-07-03T01:58:30.780Z,13.82
2023-07-03T02:01:01.037Z,13.75
2023-07-03T02:06:28.894Z,13.23
2023-07-03T02:08:55.580Z,14.27
2023-07-03T02:11:23.246Z,13.77
2023-07-03T02:13:49.999Z,14.13
2023-07-03T02:16:16.732Z,14.38
2023-07-03T02:18:44.060Z,14.32
2023-07-03T02:21:10.945Z,13.10
2023-07-03T02:23:37.591Z,12.32
2023-07-03T02:26:04.252Z,14.25
2023-07-03T02:28:31.019Z,13.48
2023-07-03T02:30:57.826Z,11.55
2023-07-03T02:33:24.524Z,12.93
2023-07-03T02:35:51.289Z,11.40
2023-07-03T02:38:18.162Z,13.40
2023-07-03T02:40:44.729Z,13.35
2023-07-03T02:43:11.406Z,11.45
2023-07-03T02:45:40.257Z,12.48
2023-07-03T02:48:07.860Z,12.85
2023-07-03T02:50:34.610Z,13.80
2023-07-03T02:53:01.277Z,12.38
2023-07-03T02:55:27.993Z,13.25
2023-07-03T02:57:56.641Z,12.18
2023-07-03T03:00:23.281Z,12.80
2023-07-03T03:02:49.993Z,12.80
2023-07-03T03:05:16.843Z,12.05
2023-07-03T03:07:43.695Z,13.65
2023-07-03T03:10:10.591Z,13.27
2023-07-03T03:12:37.504Z,13.20
2023-07-03T03:15:04.473Z,12.13
2023-07-03T03:17:31.684Z,13.00
2023-07-03T03:19:59.993Z,13.27
2023-07-03T03:22:26.937Z,12.55
2023-07-03T03:24:53.586Z,13.32
2023-07-03T03:27:20.337Z,15.43
2023-07-03T03:29:48.805Z,15.68
2023-07-03T03:32:15.441Z,18.90
2023-07-03T03:34:42.213Z,13.73
2023-07-03T03:37:08.845Z,14.00
2023-07-03T03:39:35.527Z,13.93
2023-07-03T03:42:02.182Z,13.63
2023-07-03T03:44:28.789Z,13.80
2023-07-03T03:46:55.407Z,12.68
2023-07-03T03:49:22.714Z,14.80
2023-07-03T03:51:49.337Z,13.35
2023-07-03T03:54:16.006Z,15.85
2023-07-03T03:56:42.609Z,15.30
2023-07-03T03:59:09.280Z,14.50
2023-07-03T04:01:35.915Z,16.67
2023-07-03T04:04:03.718Z,16.60
2023-07-03T04:06:30.874Z,14.38
2023-07-03T04:08:59.917Z,16.23
2023-07-03T04:11:27.347Z,15.07
2023-07-03T04:13:54.230Z,15.60
2023-07-03T04:16:20.932Z,15.18
2023-07-03T04:18:47.574Z,16.95
2023-07-03T04:21:15.625Z,16.05
2023-07-03T04:23:44.013Z,17.75
2023-07-03T04:26:10.660Z,14.68
2023-07-03T04:28:37.257Z,16.42
2023-07-03T04:31:03.908Z,17.13
2023-07-03T04:33:30.857Z,13.05
2023-07-03T04:35:57.562Z,17.00
2023-07-03T04:38:25.539Z,14.90
2023-07-03T04:40:53.297Z,14.75
2023-07-03T04:43:21.329Z,14.80
2023-07-03T04:45:50.398Z,16.60
2023-07-03T04:48:17.710Z,14.70
2023-07-03T04:50:46.798Z,17.52
2023-07-03T04:53:13.638Z,13.85
2023-07-03T04:55:40.279Z,15.45
2023-07-03T04:58:08.677Z,13.10
2023-07-03T05:00:35.406Z,14.93
2023-07-03T05:03:05.281Z,14.23
2023-07-03T05:05:33.098Z,15.85
2023-07-03T05:07:59.837Z,15.05
2023-07-03T05:10:27.614Z,15.40
2023-07-03T05:12:54.292Z,15.38
2023-07-03T05:15:21.461Z,15.85
2023-07-03T05:17:53.682Z,15.23
2023-07-03T05:20:20.733Z,14.77
2023-07-03T05:22:47.715Z,13.90
2023-07-03T05:25:14.776Z,15.75
2023-07-03T05:27:41.448Z,15.77
2023-07-03T05:30:08.940Z,14.60
2023-07-03T05:32:35.730Z,12.55
2023-07-03T05:35:04.495Z,14.32
2023-07-03T05:37:31.227Z,13.90
2023-07-03T05:39:57.948Z,12.52
2023-07-03T05:42:24.662Z,15.40
2023-07-03T05:44:51.371Z,12.27
2023-07-03T05:47:18.222Z,13.52
2023-07-03T05:49:44.976Z,12.60
2023-07-03T05:52:11.984Z,13.40
2023-07-03T05:54:38.901Z,13.07
2023-07-03T05:57:08.235Z,12.57
2023-07-03T05:59:35.343Z,13.52
2023-07-03T06:02:03.671Z,12.15
2023-07-03T06:04:30.687Z,12.38
2023-07-03T06:06:57.465Z,11.85
2023-07-03T06:09:24.975Z,12.52
2023-07-03T06:12:01.986Z,11.40
2023-07-03T06:14:29.892Z,13.48
2023-07-03T06:16:59.157Z,11.85
2023-07-03T06:19:26.360Z,11.68
2023-07-03T06:21:53.260Z,12.50
2023-07-03T06:24:20.105Z,12.20
2023-07-03T06:26:47.012Z,11.45
2023-07-03T06:29:15.258Z,11.35
2023-07-03T06:31:43.013Z,11.57
2023-07-03T06:34:09.842Z,11.57
2023-07-03T06:36:36.575Z,11.98
2023-07-03T06:39:05.724Z,12.18
2023-07-03T06:41:33.639Z,12.05
2023-07-03T06:44:04.605Z,11.65
2023-07-03T06:47:04.428Z,13.48
2023-07-03T06:49:31.171Z,11.60
2023-07-03T06:51:58.198Z,10.75
2023-07-03T06:54:24.802Z,12.02
2023-07-03T06:56:51.431Z,18.52
2023-07-03T06:59:18.079Z,11.45
2023-07-03T07:01:44.671Z,11.77
2023-07-03T07:04:12.130Z,13.68
2023-07-03T07:06:39.731Z,11.98
2023-07-03T07:09:06.489Z,12.73
2023-07-03T07:11:35.177Z,12.15
2023-07-03T07:14:05.598Z,12.18
2023-07-03T07:16:36.841Z,12.05
2023-07-03T07:19:05.355Z,11.55
2023-07-03T07:21:32.989Z,12.73
2023-07-03T07:24:01.519Z,13.38
2023-07-03T07:26:34.445Z,11.90
2023-07-03T07:29:01.798Z,12.23
2023-07-03T07:31:29.262Z,11.35
2023-07-03T07:33:56.008Z,11.63
2023-07-03T07:36:26.078Z,11.40
2023-07-03T07:38:56.019Z,11.40
2023-07-03T07:41:24.018Z,10.55
2023-07-03T07:43:51.727Z,11.63
2023-07-03T07:46:18.575Z,11.95
2023-07-03T07:48:47.028Z,10.77
2023-07-03T07:51:13.754Z,12.38
2023-07-03T07:53:40.691Z,12.35
2023-07-03T07:56:08.177Z,12.48
2023-07-03T07:58:35.171Z,11.98
2023-07-03T08:01:02.045Z,11.15
2023-07-03T08:07:10.972Z,11.57
2023-07-03T08:09:37.581Z,11.02
2023-07-03T08:12:07.186Z,12.52
2023-07-03T08:14:34.156Z,10.85
2023-07-03T08:17:14.977Z,11.48
2023-07-03T08:19:43.809Z,11.13
2023-07-03T08:22:13.181Z,10.30
2023-07-03T08:24:49.635Z,10.75
2023-07-03T08:27:16.437Z,8.43
2023-07-03T08:29:43.473Z,9.20
2023-07-03T08:32:15.453Z,8.80
2023-07-03T08:37:28.939Z,9.20
2023-07-03T08:39:55.674Z,8.50
2023-07-03T08:42:28.086Z,8.30
2023-07-03T08:47:24.514Z,7.10
2023-07-03T08:49:51.292Z,11.25
2023-07-03T08:52:22.908Z,8.02
2023-07-03T08:54:50.155Z,9.70
2023-07-03T08:57:17.001Z,8.93
2023-07-03T08:59:43.757Z,9.10
2023-07-03T09:02:16.981Z,8.27
2023-07-03T09:05:09.713Z,7.53
2023-07-03T09:07:59.655Z,7.28
2023-07-03T09:10:48.444Z,7.95
2023-07-03T09:13:45.647Z,8.48
2023-07-03T09:16:27.549Z,8.18
2023-07-03T09:18:58.724Z,7.33
2023-07-03T09:21:25.865Z,6.70
2023-07-03T09:24:00.320Z,7.72
2023-07-03T09:26:34.365Z,7.22
2023-07-03T09:29:07.749Z,5.97
2023-07-03T09:32:02.157Z,7.13
2023-07-03T09:34:29.011Z,7.75
2023-07-03T09:37:00.198Z,7.70
2023-07-03T09:39:26.963Z,7.45
2023-07-03T09:41:54.398Z,7.10
2023-07-03T09:44:23.241Z,7.22
2023-07-03T09:46:50.681Z,7.82
2023-07-03T09:49:21.026Z,8.25
2023-07-03T09:51:50.689Z,8.23
2023-07-03T09:54:21.498Z,6.32
2023-07-03T09:56:50.625Z,7.20
2023-07-03T09:59:20.783Z,8.15
2023-07-03T10:07:07.011Z,8.63
2023-07-03T10:12:12.749Z,8.10
2023-07-03T10:14:53.053Z,7.75
2023-07-03T10:17:24.845Z,7.63
2023-07-03T10:19:55.463Z,7.88
2023-07-03T10:22:22.280Z,9.82
2023-07-03T10:24:52.083Z,7.97
2023-07-03T10:27:20.823Z,7.28
2023-07-03T10:29:50.891Z,8.27
2023-07-03T10:32:18.060Z,7.57
2023-07-03T10:35:11.192Z,7.63
2023-07-03T10:37:51.487Z,8.43
2023-07-03T10:40:23.153Z,7.45
2023-07-03T10:42:53.877Z,8.23
2023-07-03T10:45:20.799Z,8.23
2023-07-03T10:47:52.312Z,7.75
2023-07-03T10:50:19.522Z,8.30
2023-07-03T10:52:55.218Z,8.02
2023-07-03T10:55:45.450Z,6.93
2023-07-03T10:58:20.594Z,11.30
2023-07-03T11:00:54.584Z,7.75
2023-07-03T11:03:30.014Z,8.18
2023-07-03T11:06:02.238Z,8.55
2023-07-03T11:08:57.757Z,9.07
2023-07-03T11:11:49.882Z,7.97
2023-07-03T11:14:41.070Z,9.00
2023-07-03T11:17:18.668Z,7.88
2023-07-03T11:19:52.139Z,8.85
2023-07-03T11:25:10.074Z,8.32
2023-07-03T11:30:14.943Z,8.18
2023-07-03T11:32:41.653Z,7.25
2023-07-03T11:40:37.245Z,8.15
2023-07-03T11:46:03.598Z,9.32
2023-07-03T11:51:19.627Z,8.25
2023-07-03T11:53:50.654Z,7.82
2023-07-03T11:59:19.713Z,8.50
2023-07-03T12:01:46.362Z,7.93
2023-07-03T12:05:08.624Z,7.72
2023-07-03T12:07:43.058Z,9.60
2023-07-03T12:13:29.139Z,7.78
2023-07-03T12:16:00.355Z,9.07
2023-07-03T12:18:27.182Z,8.40
2023-07-03T12:20:58.279Z,8.13
2023-07-03T12:23:42.690Z,7.20
2023-07-03T12:26:11.928Z,6.97
2023-07-03T12:28:38.868Z,6.72
2023-07-03T12:31:15.216Z,5.60
2023-07-03T12:33:59.283Z,5.75
2023-07-03T12:36:30.878Z,7.07
2023-07-03T12:39:00.689Z,6.47
2023-07-03T12:41:32.794Z,6.00
2023-07-03T12:44:08.305Z,6.10
2023-07-03T12:46:38.275Z,5.65
2023-07-03T12:49:21.413Z,6.50
2023-07-03T12:51:55.196Z,6.32
2023-07-03T12:54:22.815Z,5.57
2023-07-03T12:56:51.293Z,5.40
2023-07-03T12:59:19.783Z,6.57
2023-07-03T13:01:51.067Z,6.70
2023-07-03T13:04:33.328Z,6.72
2023-07-03T13:07:00.240Z,6.57
2023-07-03T13:09:27.748Z,5.60
2023-07-03T13:11:54.480Z,6.28
2023-07-03T13:14:23.029Z,5.50
2023-07-03T13:16:51.307Z,5.63
2023-07-03T13:19:27.540Z,6.65
2023-07-03T13:21:54.852Z,4.78
2023-07-03T13:24:21.655Z,5.95
2023-07-03T13:26:49.444Z,5.55
2023-07-03T13:29:16.383Z,6.28
2023-07-03T13:31:52.016Z,6.22
2023-07-03T13:34:22.542Z,5.25
2023-07-03T13:37:02.254Z,5.97
2023-07-03T13:39:29.918Z,5.70
2023-07-03T13:41:57.921Z,5.70
2023-07-03T13:44:24.861Z,6.05
2023-07-03T13:46:52.919Z,5.88
2023-07-03T13:49:20.283Z,5.78
2023-07-03T13:51:47.902Z,5.38
2023-07-03T13:54:14.951Z,5.63
2023-07-03T13:56:42.010Z,5.35
2023-07-03T13:59:10.320Z,4.80
2023-07-03T14:01:37.519Z,5.00
2023-07-03T14:04:04.538Z,5.50
2023-07-03T14:06:31.352Z,5.13
2023-07-03T14:08:58.157Z,5.30
2023-07-03T14:11:24.837Z,5.60
2023-07-03T14:13:51.648Z,6.88
2023-07-03T14:16:18.385Z,5.90
2023-07-03T14:18:45.036Z,5.28
2023-07-03T14:21:13.255Z,6.55
2023-07-03T14:23:41.655Z,5.38
2023-07-03T14:26:10.920Z,5.82
2023-07-03T14:28:39.133Z,5.70
2023-07-03T14:31:05.871Z,4.68
2023-07-03T14:33:33.283Z,6.30
2023-07-03T14:35:59.934Z,6.45
2023-07-03T14:38:26.632Z,6.85
2023-07-03T14:40:53.290Z,5.35
2023-07-03T14:43:20.018Z,6.22
2023-07-03T14:45:47.447Z,5.25
2023-07-03T14:48:14.127Z,5.82
2023-07-03T14:50:40.779Z,6.78
2023-07-03T14:53:10.791Z,5.63
2023-07-03T14:55:37.493Z,6.38
2023-07-03T14:58:04.169Z,6.32
2023-07-03T15:00:30.756Z,6.45
2023-07-03T15:02:57.491Z,6.80
2023-07-03T15:05:24.382Z,5.97
2023-07-03T15:07:53.319Z,6.07
2023-07-03T15:10:20.252Z,5.82
2023-07-03T15:12:47.939Z,6.07
2023-07-03T15:15:14.581Z,5.95
2023-07-03T15:17:41.390Z,6.60
2023-07-03T15:20:09.055Z,6.20
2023-07-03T15:22:35.921Z,6.57
2023-07-03T15:25:02.799Z,6.35
2023-07-03T15:27:29.598Z,6.35
2023-07-03T15:29:56.269Z,5.55
2023-07-03T15:32:23.016Z,5.90
2023-07-03T15:34:52.025Z,6.93
2023-07-03T15:37:18.669Z,5.03
2023-07-03T15:39:45.304Z,5.57
2023-07-03T15:42:11.945Z,5.45
2023-07-03T15:44:38.571Z,5.95
2023-07-03T15:47:06.887Z,6.18
2023-07-03T15:49:35.850Z,6.20
2023-07-03T15:52:04.878Z,6.53
2023-07-03T15:54:32.343Z,5.40
2023-07-03T15:56:58.989Z,7.72
2023-07-03T15:59:25.731Z,8.15
2023-07-03T16:01:52.376Z,8.38
2023-07-03T16:04:19.098Z,7.28
2023-07-03T16:06:46.354Z,8.30
2023-07-03T16:09:13.970Z,7.05
2023-07-03T16:11:40.628Z,6.32
2023-07-03T16:14:07.335Z,6.35
2023-07-03T16:16:34.025Z,6.80
2023-07-03T16:19:00.889Z,7.03
2023-07-03T16:21:28.894Z,7.70
2023-07-03T16:23:57.341Z,6.65
2023-07-03T16:26:25.580Z,6.20
2023-07-03T16:28:52.454Z,6.43
2023-07-03T16:31:21.552Z,7.22
2023-07-03T16:33:49.795Z,6.75
2023-07-03T16:36:18.113Z,7.65
2023-07-03T16:38:47.867Z,7.10
2023-07-03T16:41:14.971Z,7.45
2023-07-03T16:43:44.325Z,8.60
2023-07-03T16:46:12.502Z,8.02
2023-07-03T16:48:39.414Z,8.13
2023-07-03T16:51:07.552Z,8.20
2023-07-03T16:53:35.315Z,8.57
2023-07-03T16:56:03.764Z,7.63
2023-07-03T16:58:30.913Z,7.45
2023-07-03T17:01:02.091Z,7.38
2023-07-03T17:03:28.983Z,6.70
2023-07-03T17:05:55.619Z,6.97
2023-07-03T17:08:22.300Z,6.95
2023-07-03T17:10:48.933Z,8.98
2023-07-03T17:13:15.674Z,7.82
2023-07-03T17:15:44.668Z,8.55
2023-07-03T17:18:11.586Z,7.72
2023-07-03T17:20:38.205Z,8.27
2023-07-03T17:23:05.102Z,7.35
2023-07-03T17:25:33.203Z,7.75
2023-07-03T17:28:00.321Z,8.50
2023-07-03T17:30:27.338Z,8.65
2023-07-03T17:32:54.016Z,8.18
2023-07-03T17:35:20.678Z,6.55
2023-07-03T17:37:47.268Z,7.65
2023-07-03T17:40:13.878Z,8.23
2023-07-03T17:42:40.552Z,8.45
2023-07-03T17:45:07.919Z,8.52
2023-07-03T17:47:34.622Z,8.10
2023-07-03T17:50:01.336Z,9.60
2023-07-03T17:52:27.949Z,9.02
2023-07-03T17:54:54.568Z,7.55
2023-07-03T17:57:21.261Z,7.68
2023-07-03T17:59:47.823Z,7.15
2023-07-03T18:02:14.560Z,7.10
2023-07-03T18:04:41.521Z,6.90
2023-07-03T18:07:08.264Z,8.10
2023-07-03T18:09:36.364Z,7.93
2023-07-03T18:12:03.122Z,8.07
2023-07-03T18:14:30.276Z,7.85
2023-07-03T18:16:57.270Z,8.07
2023-07-03T18:19:23.921Z,9.57
2023-07-03T18:21:50.841Z,8.10
2023-07-03T18:24:17.634Z,7.80
2023-07-03T18:26:44.307Z,6.82
2023-07-03T18:29:10.898Z,7.03
2023-07-03T18:31:37.805Z,8.35
2023-07-03T18:34:04.509Z,7.47
2023-07-03T18:36:31.151Z,7.97
2023-07-03T18:39:00.321Z,7.18
2023-07-03T18:41:27.103Z,7.35
2023-07-03T18:43:53.789Z,8.20
2023-07-03T18:46:20.508Z,8.77
2023-07-03T18:48:47.164Z,8.18
2023-07-03T18:51:14.775Z,8.52
2023-07-03T18:53:41.747Z,7.25
2023-07-03T18:56:08.437Z,7.80
2023-07-03T18:58:35.191Z,7.35
2023-07-03T19:01:01.956Z,7.68
2023-07-03T19:03:29.109Z,7.28
2023-07-03T19:06:00.242Z,6.65
2023-07-03T19:08:27.292Z,8.10
2023-07-03T19:10:53.985Z,8.68
2023-07-03T19:13:20.704Z,9.20
2023-07-03T19:15:47.529Z,7.90
2023-07-03T19:18:14.885Z,7.40
2023-07-03T19:20:41.648Z,6.70
2023-07-03T19:23:08.916Z,7.53
2023-07-03T19:25:35.673Z,9.05
2023-07-03T19:28:02.491Z,7.57
2023-07-03T19:30:29.167Z,6.70
2023-07-03T19:32:55.818Z,8.50
2023-07-03T19:35:22.551Z,7.45
2023-07-03T19:37:50.126Z,7.45
2023-07-03T19:40:16.895Z,7.15
2023-07-03T19:42:43.577Z,8.68
2023-07-03T19:45:10.536Z,7.90
2023-07-03T19:47:37.586Z,7.07
2023-07-03T19:50:10.484Z,7.95
2023-07-03T19:52:37.634Z,7.25
2023-07-03T19:55:04.476Z,8.10
2023-07-03T19:57:31.439Z,8.35
2023-07-03T19:59:58.124Z,6.80
2023-07-03T20:02:25.349Z,7.70
2023-07-03T20:04:52.120Z,6.55
2023-07-03T20:07:18.793Z,6.97
2023-07-03T20:09:45.432Z,7.03
2023-07-03T20:12:12.065Z,7.55
2023-07-03T20:14:39.523Z,7.32
2023-07-03T20:17:06.829Z,7.25
2023-07-03T20:19:33.838Z,8.38
2023-07-03T20:22:00.762Z,7.28
2023-07-03T20:24:27.681Z,7.65
2023-07-03T20:26:54.965Z,8.00
2023-07-03T20:29:22.117Z,7.25
2023-07-03T20:31:51.208Z,7.72
2023-07-03T20:34:17.969Z,7.13
2023-07-03T20:36:44.642Z,6.95
2023-07-03T20:39:11.298Z,7.40
2023-07-03T20:41:38.338Z,8.57
2023-07-03T20:44:05.715Z,7.60
2023-07-03T20:46:32.891Z,7.82
2023-07-03T20:49:00.829Z,7.60
2023-07-03T20:51:33.150Z,8.02
2023-07-03T20:54:00.076Z,7.45
2023-07-03T20:56:29.268Z,8.15
2023-07-03T20:58:58.320Z,8.13
2023-07-03T21:01:26.866Z,7.78
2023-07-03T21:03:54.161Z,7.50
2023-07-03T21:06:22.392Z,9.00
2023-07-03T21:08:49.594Z,8.57
2023-07-03T21:11:21.276Z,8.05
2023-07-03T21:13:49.961Z,8.27
2023-07-03T21:16:19.360Z,8.77
2023-07-03T21:18:46.338Z,7.35
2023-07-03T21:21:14.522Z,6.85
2023-07-03T21:23:41.377Z,7.50
2023-07-03T21:26:08.449Z,6.82
2023-07-03T21:28:35.083Z,7.82
2023-07-03T21:31:01.857Z,8.32
2023-07-03T21:33:29.251Z,7.60
2023-07-03T21:36:07.401Z,7.70
2023-07-03T21:38:34.253Z,7.65
2023-07-03T21:41:01.776Z,7.57
2023-07-03T21:43:28.593Z,7.60
2023-07-03T21:46:12.443Z,7.75
2023-07-03T21:48:39.998Z,7.15
2023-07-03T21:51:06.977Z,7.72
2023-07-03T21:53:34.684Z,7.25
2023-07-03T21:56:06.676Z,7.38
2023-07-03T21:58:33.662Z,7.22
2023-07-03T22:01:01.573Z,8.90
2023-07-03T22:03:29.803Z,8.13
2023-07-03T22:05:57.503Z,8.27
2023-07-03T22:08:24.488Z,9.13
2023-07-03T22:10:51.175Z,8.02
2023-07-03T22:13:18.003Z,7.80
2023-07-03T22:15:45.514Z,7.25
2023-07-03T22:18:12.195Z,7.43
2023-07-03T22:20:40.332Z,8.52
2023-07-03T22:23:09.994Z,6.90
2023-07-03T22:25:36.731Z,7.90
2023-07-03T22:28:03.678Z,6.68
2023-07-03T22:30:30.304Z,7.40
2023-07-03T22:32:57.095Z,8.68
2023-07-03T22:35:23.933Z,7.90
2023-07-03T22:37:50.556Z,7.75
2023-07-03T22:40:17.887Z,7.55
2023-07-03T22:42:44.971Z,7.78
2023-07-03T22:45:11.826Z,8.25
2023-07-03T22:47:38.620Z,7.43
2023-07-03T22:50:06.008Z,7.03
2023-07-03T22:52:33.631Z,7.47
2023-07-03T22:55:00.715Z,6.80
2023-07-03T22:57:27.844Z,6.80
2023-07-03T22:59:54.644Z,7.30
2023-07-03T23:02:21.457Z,7.63
2023-07-03T23:04:48.456Z,7.72
2023-07-03T23:07:15.248Z,7.10
2023-07-03T23:09:44.014Z,7.28
2023-07-03T23:12:11.168Z,6.50
2023-07-03T23:14:38.998Z,7.10
2023-07-03T23:17:06.094Z,7.13
2023-07-03T23:19:32.771Z,6.15
2023-07-03T23:21:59.640Z,7.60
2023-07-03T23:24:26.343Z,7.15
2023-07-03T23:26:53.578Z,7.28
2023-07-03T23:29:21.981Z,6.90
2023-07-03T23:31:49.054Z,6.25
2023-07-03T23:34:15.723Z,6.28
2023-07-03T23:36:42.478Z,7.28
2023-07-03T23:39:09.351Z,13.82
2023-07-03T23:41:37.908Z,20.10
2023-07-03T23:44:05.179Z,6.55
2023-07-03T23:46:32.906Z,6.30
2023-07-03T23:49:01.801Z,6.68
2023-07-03T23:51:29.927Z,6.10
2023-07-03T23:53:56.796Z,6.75
2023-07-03T23:56:23.406Z,6.57
2023-07-03T23:58:50.058Z,7.35
